Time;durP1;ratioP1;P1;durP2;ratioP2;P2;SDS_P1;SDS_P2;PMS_P1;PMS_P2;Temp;Humidity;BMP_temperature;BMP_pressure;BME280_temperature;BME280_humidity;BME280_pressure;Samples;Min_cycle;Max_cycle;Signal;HPM_P1;HPM_P2
2023/12/02 00:01:13;;;;;;;0.90;0.70;;;21.70;53.10;;;;;;5034455;28;20412;-71
2023/12/02 00:03:38;;;;;;;1.85;1.15;;;21.70;53.10;;;;;;5038451;28;20107;-72
2023/12/02 00:06:04;;;;;;;1.30;0.90;;;21.70;53.10;;;;;;5036923;28;20037;-72
2023/12/02 00:08:30;;;;;;;0.98;0.80;;;21.70;53.10;;;;;;5037543;28;20056;-71
2023/12/02 00:10:55;;;;;;;0.93;0.77;;;21.70;53.20;;;;;;5037584;28;20067;-71
2023/12/02 00:13:21;;;;;;;0.90;0.80;;;21.70;53.20;;;;;;5039014;28;20416;-71
2023/12/02 00:15:46;;;;;;;1.00;0.80;;;21.70;53.20;;;;;;5036244;28;20033;-71
2023/12/02 00:18:12;;;;;;;1.05;0.82;;;21.70;53.20;;;;;;5035274;28;20056;-64
2023/12/02 00:20:38;;;;;;;0.80;0.80;;;21.70;53.20;;;;;;5035408;28;20029;-64
2023/12/02 00:23:03;;;;;;;1.00;0.80;;;21.70;53.20;;;;;;5036118;28;20112;-64
2023/12/02 00:25:29;;;;;;;1.35;0.88;;;21.70;53.20;;;;;;5035321;28;20037;-64
2023/12/02 00:27:54;;;;;;;1.30;0.90;;;21.70;53.20;;;;;;5033055;28;20358;-64
2023/12/02 00:30:20;;;;;;;0.85;0.73;;;21.70;53.20;;;;;;5035334;28;20465;-64
2023/12/02 00:32:46;;;;;;;0.75;0.70;;;21.80;53.30;;;;;;5035526;28;20159;-65
2023/12/02 00:35:12;;;;;;;0.90;0.80;;;21.80;53.30;;;;;;5035707;28;20034;-64
2023/12/02 00:37:37;;;;;;;0.88;0.70;;;21.80;53.40;;;;;;5019567;28;20056;-66
2023/12/02 00:40:03;;;;;;;2.85;0.77;;;21.80;53.50;;;;;;5017786;28;20513;-72
2023/12/02 00:42:29;;;;;;;0.85;0.77;;;21.80;53.50;;;;;;5032944;28;20477;-73
2023/12/02 00:44:55;;;;;;;0.73;0.70;;;21.80;53.40;;;;;;5035713;28;20090;-73
2023/12/02 00:47:20;;;;;;;1.20;0.98;;;21.80;53.30;;;;;;5034731;28;20036;-72
2023/12/02 00:49:46;;;;;;;0.80;0.80;;;21.80;53.20;;;;;;5034613;28;20025;-72
2023/12/02 00:52:11;;;;;;;1.00;0.90;;;21.70;53.10;;;;;;5034841;28;20029;-72
2023/12/02 00:54:37;;;;;;;1.65;0.80;;;21.70;53.00;;;;;;5032282;28;20487;-72
2023/12/02 00:57:03;;;;;;;1.15;0.80;;;21.70;53.00;;;;;;5037468;28;20100;-72
2023/12/02 00:59:28;;;;;;;1.08;0.80;;;21.70;52.90;;;;;;5035570;28;20029;-71
2023/12/02 01:01:54;;;;;;;1.15;0.90;;;21.70;52.90;;;;;;5034514;28;20041;-72
2023/12/02 01:04:19;;;;;;;1.20;0.90;;;21.70;52.80;;;;;;5034867;28;20413;-72
2023/12/02 01:06:45;;;;;;;1.52;0.90;;;21.70;52.80;;;;;;5036655;28;20385;-72
2023/12/02 01:09:11;;;;;;;1.92;0.95;;;21.70;52.70;;;;;;5035125;28;20029;-71
2023/12/02 01:11:36;;;;;;;1.05;0.80;;;21.60;52.70;;;;;;5035724;28;20025;-72
2023/12/02 01:14:02;;;;;;;1.35;1.10;;;21.60;52.60;;;;;;5034483;28;20388;-71
2023/12/02 01:16:28;;;;;;;0.90;0.88;;;21.60;52.60;;;;;;5015885;28;20052;-72
2023/12/02 01:18:53;;;;;;;1.67;1.00;;;21.60;52.60;;;;;;5020680;28;20041;-71
2023/12/02 01:21:19;;;;;;;1.17;0.90;;;21.60;52.60;;;;;;5035640;28;20590;-72
2023/12/02 01:23:44;;;;;;;1.15;0.90;;;21.60;52.60;;;;;;5034550;28;20038;-71
2023/12/02 01:26:10;;;;;;;0.82;0.75;;;21.60;52.50;;;;;;5037544;28;20487;-71
2023/12/02 01:28:36;;;;;;;1.20;0.90;;;21.50;52.40;;;;;;5035492;28;20104;-71
2023/12/02 01:31:01;;;;;;;1.17;0.90;;;21.50;52.40;;;;;;5038169;28;20063;-72
2023/12/02 01:33:27;;;;;;;1.23;0.90;;;21.50;52.40;;;;;;5038882;28;20029;-71
2023/12/02 01:35:52;;;;;;;1.05;0.85;;;21.50;52.40;;;;;;5021299;28;20025;-72
2023/12/02 01:38:18;;;;;;;1.05;0.95;;;21.50;52.40;;;;;;5039288;28;20491;-72
2023/12/02 01:40:44;;;;;;;1.20;0.90;;;21.50;52.90;;;;;;5038721;28;20466;-72
2023/12/02 01:43:25;;;;;;;1.40;1.02;;;21.40;52.30;;;;;;5038855;28;20086;-71
2023/12/02 01:45:51;;;;;;;1.00;0.88;;;21.40;52.30;;;;;;5039110;28;20109;-71
2023/12/02 01:48:19;;;;;;;1.35;1.10;;;21.40;52.30;;;;;;5040074;28;20032;-72
2023/12/02 01:50:44;;;;;;;1.13;0.90;;;21.40;52.30;;;;;;5038660;28;20369;-70
2023/12/02 01:53:10;;;;;;;1.08;0.90;;;21.40;52.30;;;;;;5039461;28;20054;-70
2023/12/02 01:55:36;;;;;;;1.30;0.93;;;21.30;52.30;;;;;;5038835;28;20090;-71
2023/12/02 01:58:02;;;;;;;1.45;0.90;;;21.30;52.30;;;;;;5037101;28;20466;-72
2023/12/02 02:00:27;;;;;;;1.38;0.90;;;21.30;52.30;;;;;;5037632;28;20030;-72
2023/12/02 02:02:53;;;;;;;1.00;0.90;;;21.30;52.30;;;;;;5038773;27;20032;-70
2023/12/02 02:05:19;;;;;;;1.17;0.90;;;21.30;52.30;;;;;;5038560;28;20033;-72
2023/12/02 02:07:44;;;;;;;0.95;0.80;;;21.30;52.30;;;;;;5039172;28;20065;-72
2023/12/02 02:10:10;;;;;;;0.80;0.80;;;21.20;52.30;;;;;;5038351;28;20037;-71
2023/12/02 02:12:36;;;;;;;1.00;0.80;;;21.20;52.30;;;;;;5037833;28;20029;-72
2023/12/02 02:15:01;;;;;;;1.73;0.95;;;21.20;52.30;;;;;;5039006;28;20465;-72
2023/12/02 02:17:27;;;;;;;1.02;0.85;;;21.20;52.30;;;;;;5021484;28;20093;-71
2023/12/02 02:19:53;;;;;;;0.95;0.85;;;21.20;52.30;;;;;;5038147;28;20066;-72
2023/12/02 02:22:18;;;;;;;1.52;1.00;;;21.20;52.30;;;;;;5040517;28;20905;-72
2023/12/02 02:24:44;;;;;;;1.58;0.95;;;21.20;52.30;;;;;;5038287;28;20163;-72
2023/12/02 02:27:09;;;;;;;1.30;1.00;;;21.10;52.30;;;;;;5036571;28;20116;-72
2023/12/02 02:29:35;;;;;;;1.10;0.90;;;21.10;52.30;;;;;;5020500;28;20047;-71
2023/12/02 02:32:01;;;;;;;1.38;1.00;;;21.10;52.30;;;;;;5036795;28;20154;-72
2023/12/02 02:34:27;;;;;;;1.10;1.00;;;21.10;52.30;;;;;;5038173;28;20036;-72
2023/12/02 02:36:53;;;;;;;1.20;0.93;;;21.10;52.40;;;;;;5037843;28;20018;-72
2023/12/02 02:39:19;;;;;;;1.40;1.00;;;21.00;52.30;;;;;;5037594;28;20486;-69
2023/12/02 02:41:44;;;;;;;1.08;0.90;;;21.00;52.30;;;;;;5028153;28;20043;-69
2023/12/02 02:44:10;;;;;;;1.35;1.08;;;21.00;52.30;;;;;;5036236;28;20033;-69
2023/12/02 02:46:36;;;;;;;1.08;0.80;;;21.00;52.30;;;;;;5037780;28;20032;-69
2023/12/02 02:49:02;;;;;;;3.67;0.82;;;21.00;52.30;;;;;;5036418;28;20397;-69
2023/12/02 02:51:28;;;;;;;1.17;0.80;;;20.90;52.30;;;;;;5037312;28;20093;-69
2023/12/02 02:53:54;;;;;;;1.75;1.00;;;21.00;52.40;;;;;;5036534;28;20025;-69
2023/12/02 02:56:20;;;;;;;1.10;0.88;;;20.90;52.40;;;;;;5019371;28;20128;-69
2023/12/02 02:58:45;;;;;;;1.23;0.93;;;20.90;52.40;;;;;;5037336;28;20021;-69
2023/12/02 03:01:11;;;;;;;1.60;1.00;;;20.90;52.40;;;;;;5038019;28;20045;-69
2023/12/02 03:03:37;;;;;;;1.17;0.90;;;20.90;52.40;;;;;;5036192;28;20033;-69
2023/12/02 03:06:04;;;;;;;0.90;0.80;;;20.90;52.40;;;;;;5026968;28;20029;-69
2023/12/02 03:08:30;;;;;;;1.10;0.80;;;20.90;52.50;;;;;;5040825;28;20618;-69
2023/12/02 03:10:55;;;;;;;0.80;0.80;;;20.80;52.50;;;;;;5035739;28;20037;-69
2023/12/02 03:13:21;;;;;;;0.70;0.70;;;20.80;52.40;;;;;;5020461;28;20129;-69
2023/12/02 03:15:47;;;;;;;1.02;0.90;;;20.80;52.50;;;;;;5035649;28;20105;-69
2023/12/02 03:18:13;;;;;;;1.30;1.00;;;20.80;52.50;;;;;;5036753;28;20082;-69
2023/12/02 03:20:39;;;;;;;0.82;0.80;;;20.80;52.60;;;;;;5037261;28;20025;-69
2023/12/02 03:23:05;;;;;;;1.40;1.00;;;20.70;52.50;;;;;;5035492;28;20100;-69
2023/12/02 03:25:31;;;;;;;0.95;0.80;;;20.80;52.60;;;;;;5018229;28;20030;-69
2023/12/02 03:27:56;;;;;;;1.40;0.93;;;20.70;52.60;;;;;;5037625;28;20102;-69
2023/12/02 03:30:22;;;;;;;1.30;0.80;;;20.70;52.60;;;;;;5036781;28;20152;-69
2023/12/02 03:32:47;;;;;;;0.80;0.80;;;20.70;52.60;;;;;;5036074;28;20063;-69
2023/12/02 03:35:14;;;;;;;1.00;0.90;;;20.70;52.60;;;;;;5036865;28;20025;-69
2023/12/02 03:37:39;;;;;;;1.50;1.00;;;20.70;52.60;;;;;;5038994;28;20025;-69
2023/12/02 03:40:06;;;;;;;1.25;0.90;;;20.70;52.60;;;;;;5032882;28;20483;-69
2023/12/02 03:42:32;;;;;;;1.25;0.90;;;20.70;52.60;;;;;;5026890;28;20366;-69
2023/12/02 03:44:57;;;;;;;1.00;0.90;;;20.60;52.60;;;;;;5035043;28;20084;-69
2023/12/02 03:47:23;;;;;;;0.70;0.70;;;20.60;52.60;;;;;;5034813;28;20035;-69
2023/12/02 03:49:49;;;;;;;1.02;0.90;;;20.60;52.70;;;;;;5035583;28;20025;-69
2023/12/02 03:52:14;;;;;;;1.20;0.85;;;20.60;52.70;;;;;;5036262;28;20044;-69
2023/12/02 03:54:40;;;;;;;0.80;0.80;;;20.60;52.70;;;;;;5036388;28;20468;-69
2023/12/02 03:57:05;;;;;;;0.90;0.80;;;20.60;52.70;;;;;;5037349;28;20048;-69
2023/12/02 03:59:31;;;;;;;1.10;0.82;;;20.60;52.70;;;;;;5038022;28;20021;-69
2023/12/02 04:01:57;;;;;;;1.33;1.00;;;20.60;52.70;;;;;;5037929;28;20025;-69
2023/12/02 04:04:24;;;;;;;1.00;0.90;;;20.60;52.70;;;;;;5034526;28;20040;-69
2023/12/02 04:06:49;;;;;;;0.80;0.80;;;20.50;52.70;;;;;;5035401;28;20511;-69
2023/12/02 04:09:16;;;;;;;0.88;0.80;;;20.50;52.70;;;;;;5020604;28;20061;-64
2023/12/02 04:11:45;;;;;;;1.83;0.80;;;20.50;52.80;;;;;;5037210;28;20036;-64
2023/12/02 04:14:11;;;;;;;1.25;0.90;;;20.50;52.80;;;;;;5034912;28;20667;-65
2023/12/02 04:16:40;;;;;;;1.23;0.90;;;20.50;52.80;;;;;;5037192;28;20029;-63
2023/12/02 04:19:07;;;;;;;0.90;0.80;;;20.50;52.80;;;;;;5018379;28;20020;-65
2023/12/02 04:21:34;;;;;;;1.00;0.90;;;20.50;52.80;;;;;;5037211;28;20022;-64
2023/12/02 04:24:00;;;;;;;0.70;0.70;;;20.50;52.90;;;;;;5017645;28;20025;-64
2023/12/02 04:26:25;;;;;;;0.70;0.70;;;20.40;52.80;;;;;;5036837;28;20056;-65
2023/12/02 04:28:51;;;;;;;1.08;0.82;;;20.40;52.90;;;;;;5037255;28;20025;-64
2023/12/02 04:31:16;;;;;;;0.85;0.82;;;20.40;52.90;;;;;;5036554;28;20306;-63
2023/12/02 04:33:42;;;;;;;1.30;0.98;;;20.40;53.00;;;;;;5035905;28;20034;-64
2023/12/02 04:36:09;;;;;;;1.02;0.85;;;20.40;53.00;;;;;;5035511;28;20392;-62
2023/12/02 04:38:34;;;;;;;1.00;0.80;;;20.40;53.00;;;;;;5036915;28;20025;-64
2023/12/02 04:41:00;;;;;;;0.98;0.85;;;20.40;53.00;;;;;;5036330;28;20033;-63
2023/12/02 04:43:26;;;;;;;1.10;0.90;;;20.40;53.10;;;;;;5037620;28;20030;-64
2023/12/02 04:45:51;;;;;;;0.80;0.80;;;20.40;53.10;;;;;;5035638;28;20035;-65
2023/12/02 04:48:17;;;;;;;0.80;0.80;;;20.40;53.10;;;;;;5034088;28;20036;-65
2023/12/02 04:50:42;;;;;;;1.10;0.77;;;20.30;53.10;;;;;;5036461;28;20028;-64
2023/12/02 04:53:11;;;;;;;0.80;0.77;;;20.30;53.10;;;;;;5035338;28;20036;-65
2023/12/02 04:55:37;;;;;;;0.80;0.80;;;20.30;53.10;;;;;;5034811;28;20771;-64
2023/12/02 04:58:02;;;;;;;0.68;0.68;;;20.30;53.10;;;;;;5018160;28;20036;-65
2023/12/02 05:00:28;;;;;;;0.93;0.70;;;20.30;53.20;;;;;;5035059;28;20037;-71
2023/12/02 05:02:54;;;;;;;0.93;0.80;;;20.30;53.20;;;;;;5034685;28;20028;-71
2023/12/02 05:05:21;;;;;;;0.60;0.60;;;20.20;53.10;;;;;;5036333;28;20029;-71
2023/12/02 05:07:46;;;;;;;0.80;0.80;;;20.20;53.20;;;;;;5040564;28;20129;-71
2023/12/02 05:10:12;;;;;;;0.70;0.70;;;20.20;53.20;;;;;;5041276;28;20199;-71
2023/12/02 05:12:38;;;;;;;0.70;0.60;;;20.20;53.30;;;;;;5037188;28;20053;-71
2023/12/02 05:15:04;;;;;;;0.95;0.77;;;20.20;53.30;;;;;;5037245;28;20485;-71
2023/12/02 05:17:30;;;;;;;0.60;0.60;;;20.20;53.30;;;;;;5037594;28;20029;-70
2023/12/02 05:19:57;;;;;;;0.93;0.80;;;20.20;53.30;;;;;;5037003;28;20115;-64
2023/12/02 05:22:23;;;;;;;0.80;0.73;;;20.20;53.40;;;;;;5038413;28;20040;-63
2023/12/02 05:24:48;;;;;;;0.63;0.63;;;20.20;53.40;;;;;;5039812;28;20415;-64
2023/12/02 05:27:14;;;;;;;0.77;0.70;;;20.20;53.50;;;;;;5037788;28;20053;-65
2023/12/02 05:29:40;;;;;;;1.00;0.80;;;20.10;53.40;;;;;;5038321;28;20537;-65
2023/12/02 05:32:06;;;;;;;0.77;0.70;;;20.10;53.40;;;;;;5039308;28;20033;-64
2023/12/02 05:34:35;;;;;;;0.60;0.52;;;20.20;53.70;;;;;;5034815;28;20025;-65
2023/12/02 05:37:00;;;;;;;0.65;0.65;;;20.10;53.50;;;;;;5020954;28;20025;-63
2023/12/02 05:39:26;;;;;;;0.88;0.70;;;20.10;53.50;;;;;;5037884;28;20038;-66
2023/12/02 05:41:52;;;;;;;0.85;0.70;;;20.10;54.00;;;;;;5038638;28;20022;-63
2023/12/02 05:44:19;;;;;;;1.20;0.60;;;20.10;53.60;;;;;;5038974;28;20030;-65
2023/12/02 05:46:44;;;;;;;0.85;0.70;;;20.10;53.60;;;;;;5038052;28;20069;-64
2023/12/02 05:49:10;;;;;;;0.80;0.70;;;20.10;53.60;;;;;;5035618;28;20037;-65
2023/12/02 05:51:39;;;;;;;0.70;0.60;;;20.10;53.60;;;;;;5038505;28;20029;-64
2023/12/02 05:54:09;;;;;;;0.70;0.70;;;20.10;53.70;;;;;;5038202;28;20036;-65
2023/12/02 05:56:34;;;;;;;;;;;20.10;53.70;;;;;;5037524;28;20037;-64
2023/12/02 05:59:00;;;;;;;0.73;0.70;;;20.10;53.80;;;;;;5021699;28;19927;-63
2023/12/02 06:01:25;;;;;;;0.75;0.70;;;20.00;53.70;;;;;;5038602;28;20077;-63
2023/12/02 06:03:51;;;;;;;0.80;0.70;;;20.00;53.80;;;;;;5021887;28;20039;-64
2023/12/02 06:06:18;;;;;;;0.70;0.70;;;20.00;53.80;;;;;;5038961;28;20035;-64
2023/12/02 06:08:44;;;;;;;0.57;0.57;;;20.00;53.80;;;;;;5021432;28;20040;-64
2023/12/02 06:11:09;;;;;;;0.80;0.75;;;20.00;53.80;;;;;;5038963;28;20029;-69
2023/12/02 06:13:35;;;;;;;0.80;0.70;;;20.00;53.90;;;;;;5020772;28;20871;-69
2023/12/02 06:16:00;;;;;;;0.80;0.77;;;20.00;53.90;;;;;;5037778;28;20140;-69
2023/12/02 06:18:26;;;;;;;0.70;0.70;;;20.00;53.90;;;;;;5036307;28;20026;-69
2023/12/02 06:20:52;;;;;;;0.95;0.70;;;20.00;54.00;;;;;;5019295;28;20013;-69
2023/12/02 06:23:18;;;;;;;0.95;0.70;;;20.00;54.00;;;;;;5038704;28;20029;-69
2023/12/02 06:25:43;;;;;;;1.33;0.80;;;20.00;54.00;;;;;;5019319;28;20477;-69
2023/12/02 06:28:09;;;;;;;1.10;0.80;;;20.00;54.00;;;;;;5036013;28;20485;-69
2023/12/02 06:30:35;;;;;;;1.00;0.85;;;19.90;54.00;;;;;;5036675;28;20036;-69
2023/12/02 06:33:00;;;;;;;1.33;0.93;;;20.00;54.00;;;;;;5037625;28;20025;-69
2023/12/02 06:35:26;;;;;;;1.00;0.80;;;19.90;54.00;;;;;;5038511;28;20036;-69
2023/12/02 06:37:51;;;;;;;0.80;0.70;;;19.90;54.00;;;;;;5038718;28;20065;-69
2023/12/02 06:40:17;;;;;;;0.70;0.70;;;19.90;54.00;;;;;;5036982;28;20448;-69
2023/12/02 06:42:43;;;;;;;0.95;0.82;;;19.90;54.10;;;;;;5037632;28;20076;-69
2023/12/02 06:45:09;;;;;;;0.88;0.80;;;19.90;54.10;;;;;;5036964;28;20093;-69
2023/12/02 06:47:36;;;;;;;0.73;0.70;;;19.90;54.10;;;;;;5020247;28;20027;-69
2023/12/02 06:50:03;;;;;;;1.23;0.90;;;19.90;54.10;;;;;;5036369;28;20573;-69
2023/12/02 06:52:29;;;;;;;0.93;0.80;;;19.90;54.10;;;;;;5038517;28;20480;-69
2023/12/02 06:54:54;;;;;;;0.80;0.80;;;19.90;54.10;;;;;;5037772;28;20040;-69
2023/12/02 06:57:20;;;;;;;1.20;0.80;;;19.90;54.20;;;;;;5038546;28;20485;-69
2023/12/02 06:59:46;;;;;;;0.95;0.75;;;19.90;54.20;;;;;;5035958;28;20029;-69
2023/12/02 07:02:12;;;;;;;0.98;0.80;;;19.90;54.20;;;;;;5037469;28;20029;-69
2023/12/02 07:04:38;;;;;;;1.35;0.90;;;19.90;54.20;;;;;;5037436;28;20476;-69
2023/12/02 07:07:04;;;;;;;1.30;0.90;;;19.80;54.10;;;;;;5039501;28;20033;-68
2023/12/02 07:09:29;;;;;;;1.30;0.90;;;19.90;54.20;;;;;;5037875;28;20029;-69
2023/12/02 07:11:55;;;;;;;1.48;1.00;;;19.90;54.20;;;;;;5036437;28;20369;-69
2023/12/02 07:14:20;;;;;;;0.98;0.80;;;19.80;54.20;;;;;;5035758;28;20086;-69
2023/12/02 07:16:46;;;;;;;1.13;0.80;;;19.80;54.20;;;;;;5036319;28;20086;-69
2023/12/02 07:19:15;;;;;;;0.90;0.70;;;19.80;54.20;;;;;;5037251;28;20025;-70
2023/12/02 07:21:40;;;;;;;1.07;0.90;;;19.80;54.20;;;;;;5037862;28;20105;-65
2023/12/02 07:24:06;;;;;;;1.20;0.90;;;19.80;54.20;;;;;;5037445;28;20550;-65
2023/12/02 07:26:31;;;;;;;1.10;0.80;;;19.80;54.20;;;;;;5036704;28;20086;-64
2023/12/02 07:28:57;;;;;;;0.82;0.80;;;19.80;54.20;;;;;;5038794;28;20442;-65
2023/12/02 07:31:23;;;;;;;1.10;0.80;;;19.80;54.30;;;;;;5026372;28;20154;-65
2023/12/02 07:33:48;;;;;;;1.00;0.90;;;19.80;54.30;;;;;;5036986;28;20021;-64
2023/12/02 07:36:14;;;;;;;1.10;0.90;;;19.80;54.30;;;;;;5037329;28;20053;-64
2023/12/02 07:38:40;;;;;;;1.60;0.90;;;19.80;54.30;;;;;;5035333;28;20393;-64
2023/12/02 07:41:10;;;;;;;1.27;1.00;;;19.70;54.30;;;;;;5036764;28;20121;-68
2023/12/02 07:43:36;;;;;;;1.15;0.80;;;19.80;54.30;;;;;;5036684;28;20592;-69
2023/12/02 07:46:02;;;;;;;1.98;1.10;;;19.70;54.30;;;;;;5035790;28;20076;-68
2023/12/02 07:48:27;;;;;;;1.40;0.90;;;19.80;54.30;;;;;;5016406;28;20508;-69
2023/12/02 07:50:53;;;;;;;1.23;0.80;;;19.70;54.30;;;;;;5034262;28;20037;-69
2023/12/02 07:53:18;;;;;;;1.30;1.00;;;19.70;54.30;;;;;;5026788;28;20181;-69
2023/12/02 07:55:44;;;;;;;1.50;0.90;;;19.70;54.30;;;;;;5038607;28;20034;-69
2023/12/02 07:58:10;;;;;;;1.52;1.00;;;19.70;54.30;;;;;;5034833;28;20022;-69
2023/12/02 08:00:35;;;;;;;1.65;1.13;;;19.70;54.30;;;;;;5035261;28;20389;-70
2023/12/02 08:03:01;;;;;;;1.75;1.00;;;19.70;54.40;;;;;;5034350;28;20113;-69
2023/12/02 08:05:26;;;;;;;1.00;0.80;;;19.70;54.40;;;;;;5038286;28;20033;-69
2023/12/02 08:07:52;;;;;;;1.13;0.90;;;19.70;54.40;;;;;;5036778;28;20451;-69
2023/12/02 08:10:18;;;;;;;1.27;0.88;;;19.70;54.40;;;;;;5034585;28;20037;-70
2023/12/02 08:12:43;;;;;;;1.60;1.10;;;19.70;54.40;;;;;;5036238;28;20057;-69
2023/12/02 08:15:09;;;;;;;1.48;1.00;;;19.70;54.40;;;;;;5034874;28;20136;-70
2023/12/02 08:17:35;;;;;;;1.05;0.80;;;19.70;54.40;;;;;;5037549;28;20037;-69
2023/12/02 08:20:05;;;;;;;1.45;1.00;;;19.70;54.50;;;;;;5037799;28;20021;-70
2023/12/02 08:22:31;;;;;;;1.52;0.98;;;19.70;54.40;;;;;;5036430;28;20036;-70
2023/12/02 08:24:57;;;;;;;1.02;0.85;;;19.70;54.40;;;;;;5039400;28;20113;-69
2023/12/02 08:27:23;;;;;;;1.13;0.93;;;19.70;54.50;;;;;;5039042;28;20102;-70
2023/12/02 08:29:48;;;;;;;0.98;0.90;;;19.70;54.50;;;;;;5035325;28;20025;-64
2023/12/02 08:32:14;;;;;;;1.50;1.10;;;19.70;54.50;;;;;;5032826;28;20041;-65
2023/12/02 08:34:40;;;;;;;1.70;1.15;;;19.70;54.50;;;;;;5035444;28;20498;-65
2023/12/02 08:37:06;;;;;;;2.00;1.10;;;19.70;54.50;;;;;;5034400;28;20096;-66
2023/12/02 08:39:32;;;;;;;1.55;1.13;;;19.70;54.50;;;;;;5033637;28;20200;-63
2023/12/02 08:41:58;;;;;;;1.70;1.17;;;19.60;54.50;;;;;;5037182;28;20095;-64
2023/12/02 08:44:24;;;;;;;1.63;1.10;;;19.60;54.50;;;;;;5035094;28;20108;-63
2023/12/02 08:46:50;;;;;;;1.17;0.90;;;19.60;54.50;;;;;;5033751;28;20131;-63
2023/12/02 08:49:16;;;;;;;1.30;1.00;;;19.60;54.50;;;;;;5035326;28;20025;-71
2023/12/02 08:51:41;;;;;;;1.63;1.10;;;19.60;54.50;;;;;;5036941;28;20039;-68
2023/12/02 08:54:07;;;;;;;1.27;0.98;;;19.60;54.50;;;;;;5035243;28;20182;-69
2023/12/02 08:56:33;;;;;;;1.65;1.10;;;19.60;54.50;;;;;;5018926;28;20044;-69
2023/12/02 08:58:59;;;;;;;2.17;1.20;;;19.60;54.50;;;;;;5034812;28;20025;-68
2023/12/02 09:01:25;;;;;;;1.55;1.00;;;19.60;55.00;;;;;;5035319;28;20036;-70
2023/12/02 09:03:51;;;;;;;1.60;1.08;;;19.60;54.50;;;;;;5033843;28;20571;-70
2023/12/02 09:06:17;;;;;;;2.53;1.13;;;19.60;54.50;;;;;;5034961;28;20410;-69
2023/12/02 09:08:43;;;;;;;1.42;1.10;;;19.60;54.50;;;;;;5035158;28;20036;-69
2023/12/02 09:11:09;;;;;;;1.45;1.10;;;19.60;54.50;;;;;;5033860;28;20033;-69
2023/12/02 09:13:43;;;;;;;1.70;1.10;;;19.60;54.50;;;;;;5036561;28;20536;-68
2023/12/02 09:16:20;;;;;;;1.55;1.00;;;19.60;54.50;;;;;;5032272;28;20025;-68
2023/12/02 09:18:45;;;;;;;1.40;1.00;;;19.60;54.50;;;;;;5035811;28;20496;-68
2023/12/02 09:21:34;;;;;;;1.50;1.17;;;19.60;54.50;;;;;;5033897;28;20025;-68
2023/12/02 09:24:04;;;;;;;1.50;1.10;;;19.60;54.50;;;;;;5038868;28;20048;-68
2023/12/02 09:26:42;;;;;;;1.83;1.10;;;19.60;55.00;;;;;;5035677;28;20056;-69
2023/12/02 09:29:08;;;;;;;1.52;1.10;;;19.60;54.50;;;;;;5033729;28;20353;-69
2023/12/02 09:31:34;;;;;;;1.40;1.00;;;19.60;54.50;;;;;;5017048;28;20034;-69
2023/12/02 09:34:04;;;;;;;1.58;1.10;;;19.60;54.50;;;;;;5035236;28;20029;-70
2023/12/02 09:36:35;;;;;;;1.38;1.00;;;19.60;54.50;;;;;;5035473;28;20116;-69
2023/12/02 09:39:21;;;;;;;1.50;1.10;;;19.60;54.50;;;;;;5035129;28;20037;-68
2023/12/02 09:41:51;;;;;;;1.75;1.20;;;19.60;54.50;;;;;;5038042;28;20428;-63
2023/12/02 09:44:26;;;;;;;1.50;1.00;;;19.60;54.50;;;;;;5033748;28;20333;-64
2023/12/02 09:46:58;;;;;;;1.80;1.20;;;19.60;54.50;;;;;;5033344;28;20103;-65
2023/12/02 09:49:41;;;;;;;2.38;1.50;;;19.60;54.50;;;;;;5035779;28;20026;-63
2023/12/02 09:52:30;;;;;;;1.60;1.00;;;19.60;54.50;;;;;;5040028;28;20025;-70
2023/12/02 09:55:14;;;;;;;1.80;1.00;;;19.60;54.50;;;;;;5039709;28;20025;-69
2023/12/02 09:58:06;;;;;;;1.63;1.13;;;19.60;54.50;;;;;;5038723;28;20354;-71
2023/12/02 10:00:44;;;;;;;1.95;1.15;;;19.60;54.50;;;;;;5039667;28;20519;-72
2023/12/02 10:03:37;;;;;;;1.80;1.20;;;19.60;54.50;;;;;;5038050;28;20102;-70
2023/12/02 10:06:21;;;;;;;1.75;1.10;;;19.60;54.60;;;;;;5036445;28;20029;-70
2023/12/02 10:09:11;;;;;;;1.88;1.27;;;19.60;54.50;;;;;;5038655;28;20030;-71
2023/12/02 10:11:54;;;;;;;1.70;1.20;;;19.60;54.50;;;;;;5036040;28;20024;-71
2023/12/02 10:14:22;;;;;;;1.95;1.30;;;19.60;54.50;;;;;;5039138;28;20468;-68
2023/12/02 10:16:52;;;;;;;1.60;1.15;;;19.60;54.60;;;;;;5037340;28;20104;-70
2023/12/02 10:19:36;;;;;;;;;;;19.60;54.60;;;;;;5037998;28;20078;-69
2023/12/02 10:22:03;;;;;;;1.50;1.10;;;19.60;54.60;;;;;;5038398;28;20437;-71
2023/12/02 10:24:40;;;;;;;1.95;1.10;;;19.60;54.60;;;;;;5038047;28;20491;-70
2023/12/02 10:27:12;;;;;;;1.80;1.20;;;19.60;54.60;;;;;;5037427;28;20049;-70
2023/12/02 10:30:16;;;;;;;1.85;1.17;;;19.60;54.60;;;;;;5040096;28;20053;-69
2023/12/02 10:33:09;;;;;;;1.92;1.30;;;19.60;54.60;;;;;;5039114;28;20585;-68
2023/12/02 10:35:47;;;;;;;1.58;1.13;;;19.60;54.60;;;;;;5036621;28;20029;-70
2023/12/02 10:38:35;;;;;;;1.75;1.15;;;19.50;54.60;;;;;;5036545;28;20488;-69
2023/12/02 10:41:11;;;;;;;1.90;1.13;;;19.50;54.50;;;;;;5037479;28;20476;-64
2023/12/02 10:43:44;;;;;;;2.00;1.20;;;19.50;54.50;;;;;;5036441;28;20021;-65
2023/12/02 10:46:12;;;;;;;1.65;1.08;;;19.50;54.60;;;;;;5038327;28;20026;-64
2023/12/02 10:48:40;;;;;;;2.10;1.20;;;19.50;54.60;;;;;;5035486;28;20140;-64
2023/12/02 10:51:09;;;;;;;2.30;1.30;;;19.60;54.60;;;;;;5037641;28;20045;-65
2023/12/02 10:53:36;;;;;;;1.88;1.10;;;19.60;54.80;;;;;;5036135;28;20029;-65
2023/12/02 10:56:10;;;;;;;1.70;1.20;;;19.60;55.00;;;;;;5034396;28;20092;-64
2023/12/02 10:58:39;;;;;;;2.03;1.00;;;19.70;55.10;;;;;;5038440;28;20025;-65
2023/12/02 11:01:07;;;;;;;1.90;1.20;;;19.60;55.00;;;;;;5020807;28;20028;-69
2023/12/02 11:04:13;;;;;;;2.08;1.20;;;19.70;55.20;;;;;;5036736;28;20029;-69
2023/12/02 11:06:40;;;;;;;1.83;1.00;;;19.80;55.30;;;;;;5037920;28;20029;-68
2023/12/02 11:09:42;;;;;;;2.40;1.30;;;19.80;55.30;;;;;;5037848;28;20057;-69
2023/12/02 11:12:32;;;;;;;2.25;1.40;;;19.80;55.40;;;;;;5038762;28;20388;-69
2023/12/02 11:15:03;;;;;;;1.38;1.10;;;19.90;55.50;;;;;;5036360;28;20029;-69
2023/12/02 11:17:41;;;;;;;1.50;1.08;;;19.90;55.40;;;;;;5017281;28;20025;-69
2023/12/02 11:20:20;;;;;;;2.00;1.20;;;19.90;55.40;;;;;;5037405;28;20034;-68
2023/12/02 11:23:06;;;;;;;1.60;1.10;;;20.00;55.50;;;;;;5035597;28;20056;-69
2023/12/02 11:25:35;;;;;;;1.70;1.10;;;20.00;55.50;;;;;;5020010;28;20792;-69
2023/12/02 11:28:21;;;;;;;1.70;1.00;;;20.00;55.50;;;;;;5035160;28;20048;-69
2023/12/02 11:30:55;;;;;;;1.75;1.17;;;20.00;55.50;;;;;;5037097;28;20038;-69
2023/12/02 11:34:03;;;;;;;2.00;1.27;;;20.00;55.80;;;;;;5036288;28;20037;-69
2023/12/02 11:36:55;;;;;;;1.65;1.13;;;20.00;55.60;;;;;;5036432;28;20064;-69
2023/12/02 11:39:50;;;;;;;2.90;1.10;;;19.90;55.50;;;;;;5035680;28;20087;-69
2023/12/02 11:42:18;;;;;;;1.63;1.05;;;19.90;55.60;;;;;;5018722;28;20033;-69
2023/12/02 11:44:58;;;;;;;2.85;1.23;;;20.00;55.60;;;;;;5035936;28;20080;-68
2023/12/02 11:47:43;;;;;;;1.85;1.20;;;20.00;55.70;;;;;;5035228;28;20028;-67
2023/12/02 11:52:33;;;;;;;1.60;1.15;;;19.90;55.30;;;;;;5053736;28;20414;-64
2023/12/02 11:55:28;;;;;;;1.88;1.40;;;20.00;56.00;;;;;;5056112;28;20060;-65
2023/12/02 11:58:10;;;;;;;1.88;1.30;;;20.10;56.70;;;;;;5087916;28;20146;-65
2023/12/02 12:01:01;;;;;;;1.70;1.25;;;20.20;56.30;;;;;;5058129;28;20025;-65
2023/12/02 12:03:41;;;;;;;2.58;1.50;;;20.40;55.80;;;;;;5052595;28;20095;-65
2023/12/02 12:06:16;;;;;;;2.83;1.67;;;20.60;55.30;;;;;;5055985;28;20063;-64
2023/12/02 12:09:19;;;;;;;3.40;1.80;;;20.70;54.80;;;;;;5055477;28;20115;-64
2023/12/02 12:11:46;;;;;;;3.67;1.80;;;20.90;54.50;;;;;;5054326;28;20025;-71
2023/12/02 12:14:14;;;;;;;2.50;1.80;;;21.00;54.30;;;;;;5056883;28;20039;-71
2023/12/02 12:16:40;;;;;;;2.65;1.75;;;21.00;54.10;;;;;;5055676;28;20030;-71
2023/12/02 12:19:06;;;;;;;2.42;1.67;;;21.10;54.00;;;;;;5053707;28;20079;-72
2023/12/02 12:21:32;;;;;;;2.97;1.70;;;21.20;54.00;;;;;;5055280;28;20029;-71
2023/12/02 12:23:58;;;;;;;3.30;1.77;;;21.20;53.80;;;;;;5054620;28;20051;-72
2023/12/02 12:26:24;;;;;;;2.90;1.85;;;21.30;53.70;;;;;;5055955;28;20476;-70
2023/12/02 12:28:49;;;;;;;2.78;1.58;;;21.40;53.60;;;;;;5053908;28;20397;-71
2023/12/02 12:31:17;;;;;;;2.78;1.70;;;21.50;53.30;;;;;;5053896;28;20025;-70
2023/12/02 12:33:45;;;;;;;2.40;1.60;;;21.50;53.20;;;;;;5051804;28;20079;-71
2023/12/02 12:36:11;;;;;;;2.80;1.60;;;21.60;53.10;;;;;;5054711;28;20021;-72
2023/12/02 12:38:37;;;;;;;2.33;1.60;;;21.70;53.00;;;;;;5055307;28;20492;-70
2023/12/02 12:41:05;;;;;;;2.60;1.75;;;21.80;52.80;;;;;;5053295;28;20029;-71
2023/12/02 12:43:32;;;;;;;2.57;1.77;;;21.80;52.60;;;;;;5053949;28;20065;-72
2023/12/02 12:45:57;;;;;;;2.83;1.70;;;21.90;52.60;;;;;;5054401;28;20731;-71
2023/12/02 12:48:25;;;;;;;2.92;1.63;;;22.00;52.40;;;;;;5055820;28;20044;-71
2023/12/02 12:50:59;;;;;;;2.58;1.70;;;22.00;52.20;;;;;;5054759;28;20041;-71
2023/12/02 12:53:30;;;;;;;2.67;1.60;;;22.10;52.10;;;;;;5054632;28;20029;-70
2023/12/02 12:56:20;;;;;;;2.85;1.60;;;22.20;52.40;;;;;;5055801;28;20021;-71
2023/12/02 12:59:00;;;;;;;2.40;1.70;;;22.20;51.70;;;;;;5054933;28;20017;-70